sensor_id;sensor_type;location;lat;lon;timestamp;pressure;altitude;pressure_sealevel;temperature;humidity
62025;BME280;47978;49.118;12.146;2023-02-28T00:03:41;98254.47;;;-1.96;77.63
62025;BME280;47978;49.118;12.146;2023-02-28T00:07:43;98258.66;;;-1.87;77.20
62025;BME280;47978;49.118;12.146;2023-02-28T00:11:44;98249.84;;;-2.03;77.63
62025;BME280;47978;49.118;12.146;2023-02-28T00:15:47;98249.84;;;-2.03;77.32
62025;BME280;47978;49.118;12.146;2023-02-28T00:19:48;98250.72;;;-1.95;77.21
62025;BME280;47978;49.118;12.146;2023-02-28T00:23:50;98255.69;;;-2.12;77.45
62025;BME280;47978;49.118;12.146;2023-02-28T00:27:51;98248.63;;;-2.07;77.23
62025;BME280;47978;49.118;12.146;2023-02-28T00:31:54;98243.19;;;-2.07;77.28
62025;BME280;47978;49.118;12.146;2023-02-28T00:36:02;98239.88;;;-2.02;77.21
62025;BME280;47978;49.118;12.146;2023-02-28T00:40:05;98232.34;;;-2.07;76.88
62025;BME280;47978;49.118;12.146;2023-02-28T00:44:06;98240.06;;;-2.04;77.25
62025;BME280;47978;49.118;12.146;2023-02-28T00:48:09;98242.94;;;-2.25;77.67
62025;BME280;47978;49.118;12.146;2023-02-28T00:52:10;98233.38;;;-2.21;77.28
62025;BME280;47978;49.118;12.146;2023-02-28T00:56:12;98227.34;;;-2.10;77.67
62025;BME280;47978;49.118;12.146;2023-02-28T01:00:13;98222.56;;;-2.08;76.97
62025;BME280;47978;49.118;12.146;2023-02-28T01:04:16;98223.19;;;-2.12;77.39
62025;BME280;47978;49.118;12.146;2023-02-28T01:08:18;98219.41;;;-2.11;77.38
62025;BME280;47978;49.118;12.146;2023-02-28T01:12:19;98218.16;;;-2.09;77.33
62025;BME280;47978;49.118;12.146;2023-02-28T01:16:21;98221.72;;;-2.15;77.63
62025;BME280;47978;49.118;12.146;2023-02-28T01:20:24;98220.88;;;-2.09;76.92
62025;BME280;47978;49.118;12.146;2023-02-28T01:24:25;98219.00;;;-2.08;77.15
62025;BME280;47978;49.118;12.146;2023-02-28T01:28:26;98213.78;;;-2.23;77.59
62025;BME280;47978;49.118;12.146;2023-02-28T01:32:28;98215.25;;;-2.20;77.73
62025;BME280;47978;49.118;12.146;2023-02-28T01:36:31;98217.75;;;-2.19;77.30
62025;BME280;47978;49.118;12.146;2023-02-28T01:40:32;98214.63;;;-2.16;77.26
62025;BME280;47978;49.118;12.146;2023-02-28T01:48:54;98215.25;;;-2.20;77.33
62025;BME280;47978;49.118;12.146;2023-02-28T01:53:01;98215.22;;;-2.34;77.00
62025;BME280;47978;49.118;12.146;2023-02-28T01:57:06;98211.50;;;-2.26;77.66
62025;BME280;47978;49.118;12.146;2023-02-28T02:01:10;98214.19;;;-2.33;77.39
62025;BME280;47978;49.118;12.146;2023-02-28T02:05:14;98203.97;;;-2.31;77.09
62025;BME280;47978;49.118;12.146;2023-02-28T02:09:17;98195.47;;;-2.28;77.30
62025;BME280;47978;49.118;12.146;2023-02-28T02:13:24;98187.09;;;-2.39;77.93
62025;BME280;47978;49.118;12.146;2023-02-28T02:17:31;98192.31;;;-2.38;78.06
62025;BME280;47978;49.118;12.146;2023-02-28T02:21:46;98188.59;;;-2.30;77.84
62025;BME280;47978;49.118;12.146;2023-02-28T02:25:55;98181.06;;;-2.35;77.83
62025;BME280;47978;49.118;12.146;2023-02-28T02:34:30;98187.72;;;-2.37;77.48
62025;BME280;47978;49.118;12.146;2023-02-28T02:38:38;98184.81;;;-2.29;77.33
62025;BME280;47978;49.118;12.146;2023-02-28T02:42:45;98187.09;;;-2.39;77.32
62025;BME280;47978;49.118;12.146;2023-02-28T02:46:49;98182.53;;;-2.32;77.42
62025;BME280;47978;49.118;12.146;2023-02-28T02:50:54;98181.69;;;-2.33;77.23
62025;BME280;47978;49.118;12.146;2023-02-28T02:54:56;98181.06;;;-2.35;77.12
62025;BME280;47978;49.118;12.146;2023-02-28T02:58:59;98189.41;;;-2.30;77.58
62025;BME280;47978;49.118;12.146;2023-02-28T03:03:02;98186.66;;;-2.43;77.49
62025;BME280;47978;49.118;12.146;2023-02-28T03:07:05;98191.91;;;-2.41;77.78
62025;BME280;47978;49.118;12.146;2023-02-28T03:11:10;98188.56;;;-2.43;77.65
62025;BME280;47978;49.118;12.146;2023-02-28T03:15:13;98188.78;;;-2.32;77.53
62025;BME280;47978;49.118;12.146;2023-02-28T03:19:25;98191.06;;;-2.29;77.11
62025;BME280;47978;49.118;12.146;2023-02-28T03:23:35;98188.34;;;-2.35;77.65
62025;BME280;47978;49.118;12.146;2023-02-28T03:27:39;98186.66;;;-2.36;77.88
62025;BME280;47978;49.118;12.146;2023-02-28T03:31:44;98185.44;;;-2.47;77.81
62025;BME280;47978;49.118;12.146;2023-02-28T03:35:47;98188.97;;;-2.40;77.93
62025;BME280;47978;49.118;12.146;2023-02-28T03:39:51;98191.47;;;-2.38;78.11
62025;BME280;47978;49.118;12.146;2023-02-28T03:43:55;98193.13;;;-2.37;78.05
62025;BME280;47978;49.118;12.146;2023-02-28T03:47:58;98193.78;;;-2.42;78.10
62025;BME280;47978;49.118;12.146;2023-02-28T03:52:02;98194.38;;;-2.46;78.18
62025;BME280;47978;49.118;12.146;2023-02-28T03:56:07;98182.31;;;-2.31;77.56
62025;BME280;47978;49.118;12.146;2023-02-28T04:00:12;98196.06;;;-2.39;77.59
62025;BME280;47978;49.118;12.146;2023-02-28T04:04:15;98189.78;;;-2.39;78.01
62025;BME280;47978;49.118;12.146;2023-02-28T04:08:17;98192.72;;;-2.41;77.98
62025;BME280;47978;49.118;12.146;2023-02-28T04:12:19;98191.47;;;-2.38;77.83
62025;BME280;47978;49.118;12.146;2023-02-28T04:16:21;98209.59;;;-2.39;77.91
62025;BME280;47978;49.118;12.146;2023-02-28T04:20:35;98200.44;;;-2.38;78.21
62025;BME280;47978;49.118;12.146;2023-02-28T04:24:36;98203.56;;;-2.41;77.91
62025;BME280;47978;49.118;12.146;2023-02-28T04:28:39;98200.22;;;-2.43;78.17
62025;BME280;47978;49.118;12.146;2023-02-28T04:32:40;98197.50;;;-2.36;78.22
62025;BME280;47978;49.118;12.146;2023-02-28T04:36:42;98194.38;;;-2.40;78.24
62025;BME280;47978;49.118;12.146;2023-02-28T04:40:43;98200.63;;;-2.39;78.20
62025;BME280;47978;49.118;12.146;2023-02-28T04:44:46;98200.66;;;-2.33;78.06
62025;BME280;47978;49.118;12.146;2023-02-28T04:48:48;98199.59;;;-2.32;77.58
62025;BME280;47978;49.118;12.146;2023-02-28T04:52:49;98198.78;;;-2.32;77.33
62025;BME280;47978;49.118;12.146;2023-02-28T04:56:51;98198.56;;;-2.44;77.52
62025;BME280;47978;49.118;12.146;2023-02-28T05:00:53;98199.38;;;-2.37;76.98
62025;BME280;47978;49.118;12.146;2023-02-28T05:04:55;98204.38;;;-2.34;77.00
62025;BME280;47978;49.118;12.146;2023-02-28T05:08:56;98197.91;;;-2.46;77.45
62025;BME280;47978;49.118;12.146;2023-02-28T05:12:58;98207.72;;;-2.32;76.63
62025;BME280;47978;49.118;12.146;2023-02-28T05:17:00;98208.16;;;-2.28;76.58
62025;BME280;47978;49.118;12.146;2023-02-28T05:21:02;98206.72;;;-2.24;76.00
62025;BME280;47978;49.118;12.146;2023-02-28T05:25:04;98198.78;;;-2.26;76.03
62025;BME280;47978;49.118;12.146;2023-02-28T05:29:05;98206.69;;;-2.31;75.52
62025;BME280;47978;49.118;12.146;2023-02-28T05:33:11;98209.38;;;-2.31;75.21
62025;BME280;47978;49.118;12.146;2023-02-28T05:37:13;98200.84;;;-2.34;75.21
62025;BME280;47978;49.118;12.146;2023-02-28T05:41:14;98203.16;;;-2.38;74.92
62025;BME280;47978;49.118;12.146;2023-02-28T05:45:16;98208.56;;;-2.38;74.91
62025;BME280;47978;49.118;12.146;2023-02-28T05:49:19;98207.31;;;-2.29;74.05
62025;BME280;47978;49.118;12.146;2023-02-28T05:53:20;98210.25;;;-2.23;73.85
62025;BME280;47978;49.118;12.146;2023-02-28T05:57:22;98221.31;;;-2.18;72.89
62025;BME280;47978;49.118;12.146;2023-02-28T06:01:30;98219.41;;;-2.18;72.91
62025;BME280;47978;49.118;12.146;2023-02-28T06:05:33;98216.94;;;-2.13;72.10
62025;BME280;47978;49.118;12.146;2023-02-28T06:09:34;98225.03;;;-2.19;72.07
62025;BME280;47978;49.118;12.146;2023-02-28T06:13:36;98232.31;;;-2.20;71.82
62025;BME280;47978;49.118;12.146;2023-02-28T06:17:37;98222.78;;;-2.16;71.21
62025;BME280;47978;49.118;12.146;2023-02-28T06:21:40;98227.53;;;-2.11;70.52
62025;BME280;47978;49.118;12.146;2023-02-28T06:25:44;98231.09;;;-2.11;70.63
62025;BME280;47978;49.118;12.146;2023-02-28T06:29:45;98241.72;;;-2.09;70.35
62025;BME280;47978;49.118;12.146;2023-02-28T06:33:47;98238.59;;;-2.06;70.04
62025;BME280;47978;49.118;12.146;2023-02-28T06:37:50;98241.31;;;-2.06;69.29
62025;BME280;47978;49.118;12.146;2023-02-28T06:41:51;98250.50;;;-1.94;69.24
62025;BME280;47978;49.118;12.146;2023-02-28T06:45:56;98255.06;;;-1.94;68.94
62025;BME280;47978;49.118;12.146;2023-02-28T06:49:58;98260.31;;;-1.86;69.33
62025;BME280;47978;49.118;12.146;2023-02-28T06:54:01;98255.72;;;-1.72;68.74
62025;BME280;47978;49.118;12.146;2023-02-28T06:58:02;98255.09;;;-1.61;68.74
62025;BME280;47978;49.118;12.146;2023-02-28T07:02:04;98260.53;;;-1.68;69.08
62025;BME280;47978;49.118;12.146;2023-02-28T07:06:05;98261.97;;;-1.59;69.47
62025;BME280;47978;49.118;12.146;2023-02-28T07:10:09;98257.38;;;-1.51;69.41
62025;BME280;47978;49.118;12.146;2023-02-28T07:14:10;98264.88;;;-1.33;69.47
62025;BME280;47978;49.118;12.146;2023-02-28T07:18:12;98259.63;;;-1.15;68.80
62025;BME280;47978;49.118;12.146;2023-02-28T07:22:13;98266.09;;;-1.09;69.26
62025;BME280;47978;49.118;12.146;2023-02-28T07:26:18;98262.06;;;-0.87;68.63
62025;BME280;47978;49.118;12.146;2023-02-28T07:30:20;98265.56;;;-0.73;67.76
62025;BME280;47978;49.118;12.146;2023-02-28T07:34:21;98265.28;;;-0.58;67.48
62025;BME280;47978;49.118;12.146;2023-02-28T07:38:23;98268.38;;;-0.48;67.23
62025;BME280;47978;49.118;12.146;2023-02-28T07:42:26;98274.47;;;-0.53;67.61
62025;BME280;47978;49.118;12.146;2023-02-28T07:46:27;98270.88;;;-0.47;67.75
62025;BME280;47978;49.118;12.146;2023-02-28T07:50:31;98275.47;;;-0.47;66.81
62025;BME280;47978;49.118;12.146;2023-02-28T07:54:32;98280.03;;;-0.41;66.94
62025;BME280;47978;49.118;12.146;2023-02-28T07:58:35;98283.00;;;-0.42;66.51
62025;BME280;47978;49.118;12.146;2023-02-28T08:02:36;98281.69;;;-0.33;66.67
62025;BME280;47978;49.118;12.146;2023-02-28T08:06:38;98276.34;;;-0.08;66.04
62025;BME280;47978;49.118;12.146;2023-02-28T08:10:39;98287.09;;;0.12;64.75
62025;BME280;47978;49.118;12.146;2023-02-28T08:14:42;98282.66;;;0.17;64.72
62025;BME280;47978;49.118;12.146;2023-02-28T08:18:43;98281.38;;;0.45;63.54
62025;BME280;47978;49.118;12.146;2023-02-28T08:22:45;98278.09;;;0.61;63.48
62025;BME280;47978;49.118;12.146;2023-02-28T08:26:46;98285.25;;;0.81;62.59
62025;BME280;47978;49.118;12.146;2023-02-28T08:30:49;98283.97;;;1.08;61.96
62025;BME280;47978;49.118;12.146;2023-02-28T08:34:50;98288.53;;;1.08;61.53
62025;BME280;47978;49.118;12.146;2023-02-28T08:38:52;98298.09;;;1.17;60.54
62025;BME280;47978;49.118;12.146;2023-02-28T08:42:53;98292.91;;;1.34;59.92
62025;BME280;47978;49.118;12.146;2023-02-28T08:46:56;98300.50;;;1.62;59.23
62025;BME280;47978;49.118;12.146;2023-02-28T08:50:57;98299.41;;;1.51;59.21
62025;BME280;47978;49.118;12.146;2023-02-28T08:55:08;98304.22;;;1.68;58.72
62025;BME280;47978;49.118;12.146;2023-02-28T08:59:09;98289.78;;;1.49;59.62
62025;BME280;47978;49.118;12.146;2023-02-28T09:03:12;98292.41;;;1.55;58.02
62025;BME280;47978;49.118;12.146;2023-02-28T09:07:13;98296.53;;;1.46;58.70
62025;BME280;47978;49.118;12.146;2023-02-28T09:11:15;98288.50;;;1.51;58.54
62025;BME280;47978;49.118;12.146;2023-02-28T09:15:16;98296.44;;;1.71;58.33
62025;BME280;47978;49.118;12.146;2023-02-28T09:19:19;98289.44;;;1.75;58.12
62025;BME280;47978;49.118;12.146;2023-02-28T09:23:20;98298.63;;;1.63;58.06
62025;BME280;47978;49.118;12.146;2023-02-28T09:27:22;98290.28;;;1.76;57.17
62025;BME280;47978;49.118;12.146;2023-02-28T09:31:25;98290.53;;;1.56;57.42
62025;BME280;47978;49.118;12.146;2023-02-28T09:35:28;98286.25;;;1.78;57.76
62025;BME280;47978;49.118;12.146;2023-02-28T09:39:30;98292.63;;;1.91;56.58
62025;BME280;47978;49.118;12.146;2023-02-28T09:43:33;98297.03;;;2.03;57.12
62025;BME280;47978;49.118;12.146;2023-02-28T09:47:36;98293.84;;;2.07;56.13
62025;BME280;47978;49.118;12.146;2023-02-28T09:51:43;98297.00;;;1.92;56.17
62025;BME280;47978;49.118;12.146;2023-02-28T09:55:46;98303.09;;;2.06;57.07
62025;BME280;47978;49.118;12.146;2023-02-28T09:59:55;98295.28;;;2.09;56.61
62025;BME280;47978;49.118;12.146;2023-02-28T10:04:03;98300.06;;;2.14;56.93
62025;BME280;47978;49.118;12.146;2023-02-28T10:08:10;98301.78;;;2.38;57.33
62025;BME280;47978;49.118;12.146;2023-02-28T10:12:12;98299.78;;;2.45;55.55
62025;BME280;47978;49.118;12.146;2023-02-28T10:16:16;98307.50;;;2.48;55.06
62025;BME280;47978;49.118;12.146;2023-02-28T10:20:21;98311.22;;;2.24;55.91
62025;BME280;47978;49.118;12.146;2023-02-28T10:24:28;98311.00;;;1.95;56.52
62025;BME280;47978;49.118;12.146;2023-02-28T10:28:30;98309.75;;;2.10;57.49
62025;BME280;47978;49.118;12.146;2023-02-28T10:32:32;98303.50;;;2.21;56.22
62025;BME280;47978;49.118;12.146;2023-02-28T10:36:34;98305.16;;;2.22;56.35
62025;BME280;47978;49.118;12.146;2023-02-28T10:40:37;98313.47;;;2.27;57.23
62025;BME280;47978;49.118;12.146;2023-02-28T10:44:39;98306.19;;;2.09;56.89
62025;BME280;47978;49.118;12.146;2023-02-28T10:48:41;98317.44;;;2.31;56.76
62025;BME280;47978;49.118;12.146;2023-02-28T10:52:43;98320.22;;;2.55;57.35
62025;BME280;47978;49.118;12.146;2023-02-28T10:56:46;98320.81;;;2.57;56.16
62025;BME280;47978;49.118;12.146;2023-02-28T11:01:10;98324.78;;;2.31;56.60
62025;BME280;47978;49.118;12.146;2023-02-28T11:05:21;98322.75;;;2.26;56.88
62025;BME280;47978;49.118;12.146;2023-02-28T11:09:27;98310.63;;;2.22;56.78
62025;BME280;47978;49.118;12.146;2023-02-28T11:13:31;98318.13;;;2.27;57.19
62025;BME280;47978;49.118;12.146;2023-02-28T11:17:33;98316.00;;;2.29;57.20
62025;BME280;47978;49.118;12.146;2023-02-28T11:21:35;98319.09;;;2.32;57.16
62025;BME280;47978;49.118;12.146;2023-02-28T11:25:38;98305.03;;;2.17;56.56
62025;BME280;47978;49.118;12.146;2023-02-28T11:29:46;98314.78;;;2.24;56.86
62025;BME280;47978;49.118;12.146;2023-02-28T11:33:48;98297.25;;;2.32;56.19
62025;BME280;47978;49.118;12.146;2023-02-28T11:37:50;98293.72;;;2.43;56.05
62025;BME280;47978;49.118;12.146;2023-02-28T11:41:55;98297.19;;;2.51;55.22
62025;BME280;47978;49.118;12.146;2023-02-28T11:46:05;98293.38;;;2.52;56.08
62025;BME280;47978;49.118;12.146;2023-02-28T11:50:16;98293.28;;;2.58;55.37
62025;BME280;47978;49.118;12.146;2023-02-28T11:54:23;98293.19;;;2.65;54.87
62025;BME280;47978;49.118;12.146;2023-02-28T11:58:38;98290.94;;;2.74;55.34
62025;BME280;47978;49.118;12.146;2023-02-28T12:02:49;98291.16;;;2.84;55.53
62025;BME280;47978;49.118;12.146;2023-02-28T12:06:55;98288.78;;;2.87;55.48
62025;BME280;47978;49.118;12.146;2023-02-28T12:11:04;98288.09;;;3.04;54.70
62025;BME280;47978;49.118;12.146;2023-02-28T12:15:23;98297.00;;;2.99;54.47
62025;BME280;47978;49.118;12.146;2023-02-28T12:19:28;98285.34;;;3.15;54.15
62025;BME280;47978;49.118;12.146;2023-02-28T12:23:41;98275.63;;;2.96;54.58
62025;BME280;47978;49.118;12.146;2023-02-28T12:27:46;98276.09;;;3.05;54.74
62025;BME280;47978;49.118;12.146;2023-02-28T12:31:49;98283.09;;;3.12;54.10
62025;BME280;47978;49.118;12.146;2023-02-28T12:35:57;98278.56;;;3.18;54.44
62025;BME280;47978;49.118;12.146;2023-02-28T12:40:00;98265.75;;;3.30;54.65
62025;BME280;47978;49.118;12.146;2023-02-28T12:44:03;98270.81;;;3.38;53.91
62025;BME280;47978;49.118;12.146;2023-02-28T12:48:06;98255.59;;;3.43;53.49
62025;BME280;47978;49.118;12.146;2023-02-28T12:52:10;98252.63;;;3.56;53.31
62025;BME280;47978;49.118;12.146;2023-02-28T12:56:13;98256.72;;;3.58;53.05
62025;BME280;47978;49.118;12.146;2023-02-28T13:00:18;98245.56;;;3.60;53.33
62025;BME280;47978;49.118;12.146;2023-02-28T13:04:32;98256.25;;;3.73;53.35
62025;BME280;47978;49.118;12.146;2023-02-28T13:12:55;98247.81;;;3.63;52.27
62025;BME280;47978;49.118;12.146;2023-02-28T13:16:58;98249.00;;;3.67;52.83
62025;BME280;47978;49.118;12.146;2023-02-28T13:21:00;98252.63;;;3.56;52.63
62025;BME280;47978;49.118;12.146;2023-02-28T13:25:01;98261.00;;;3.66;53.25
62025;BME280;47978;49.118;12.146;2023-02-28T13:29:05;98257.44;;;3.66;52.55
62025;BME280;47978;49.118;12.146;2023-02-28T13:33:23;98243.09;;;3.47;53.11
62025;BME280;47978;49.118;12.146;2023-02-28T13:37:35;98261.34;;;3.70;53.35
62025;BME280;47978;49.118;12.146;2023-02-28T13:41:46;98253.41;;;3.68;53.13
62025;BME280;47978;49.118;12.146;2023-02-28T13:46:06;98256.91;;;3.80;53.14
62025;BME280;47978;49.118;12.146;2023-02-28T13:50:19;98250.38;;;3.81;53.42
62025;BME280;47978;49.118;12.146;2023-02-28T13:54:28;98250.13;;;3.83;52.96
62025;BME280;47978;49.118;12.146;2023-02-28T13:58:46;98254.66;;;3.77;53.28
62025;BME280;47978;49.118;12.146;2023-02-28T14:03:00;98249.50;;;3.93;53.85
62025;BME280;47978;49.118;12.146;2023-02-28T14:07:06;98241.38;;;3.98;53.44
62025;BME280;47978;49.118;12.146;2023-02-28T14:11:22;98243.28;;;3.97;53.69
62025;BME280;47978;49.118;12.146;2023-02-28T14:15:39;98248.09;;;3.90;52.63
62025;BME280;47978;49.118;12.146;2023-02-28T14:19:44;98251.22;;;3.82;53.37
62025;BME280;47978;49.118;12.146;2023-02-28T14:28:09;98250.34;;;3.93;53.65
62025;BME280;47978;49.118;12.146;2023-02-28T14:32:14;98252.97;;;3.88;53.55
62025;BME280;47978;49.118;12.146;2023-02-28T14:36:24;98247.81;;;3.92;53.70
62025;BME280;47978;49.118;12.146;2023-02-28T14:40:27;98252.25;;;3.93;53.92
62025;BME280;47978;49.118;12.146;2023-02-28T14:44:30;98249.03;;;3.96;53.30
62025;BME280;47978;49.118;12.146;2023-02-28T14:48:32;98255.09;;;3.86;53.40
62025;BME280;47978;49.118;12.146;2023-02-28T14:52:35;98252.41;;;3.74;54.48
62025;BME280;47978;49.118;12.146;2023-02-28T14:56:37;98247.59;;;3.65;54.82
62025;BME280;47978;49.118;12.146;2023-02-28T15:00:46;98257.34;;;3.60;54.62
62025;BME280;47978;49.118;12.146;2023-02-28T15:04:55;98244.41;;;3.44;55.05
62025;BME280;47978;49.118;12.146;2023-02-28T15:09:08;98241.69;;;3.44;55.46
62025;BME280;47978;49.118;12.146;2023-02-28T15:13:11;98247.25;;;3.49;55.78
62025;BME280;47978;49.118;12.146;2023-02-28T15:17:17;98244.78;;;3.48;55.92
62025;BME280;47978;49.118;12.146;2023-02-28T15:21:20;98234.34;;;3.45;55.93
62025;BME280;47978;49.118;12.146;2023-02-28T15:25:23;98240.38;;;3.47;56.20
62025;BME280;47978;49.118;12.146;2023-02-28T15:29:27;98240.19;;;3.36;56.50
62025;BME280;47978;49.118;12.146;2023-02-28T15:33:29;98253.34;;;3.40;56.01
62025;BME280;47978;49.118;12.146;2023-02-28T15:37:39;98249.34;;;3.30;56.47
62025;BME280;47978;49.118;12.146;2023-02-28T15:41:42;98260.75;;;3.15;56.59
62025;BME280;47978;49.118;12.146;2023-02-28T15:45:45;98258.63;;;3.06;56.82
62025;BME280;47978;49.118;12.146;2023-02-28T15:49:47;98254.72;;;3.02;57.04
62025;BME280;47978;49.118;12.146;2023-02-28T15:53:50;98246.41;;;2.97;57.37
62025;BME280;47978;49.118;12.146;2023-02-28T15:57:54;98250.31;;;2.89;57.73
62025;BME280;47978;49.118;12.146;2023-02-28T16:02:03;98246.41;;;2.85;57.53
62025;BME280;47978;49.118;12.146;2023-02-28T16:06:08;98253.28;;;2.64;58.20
62025;BME280;47978;49.118;12.146;2023-02-28T16:10:11;98257.91;;;2.63;58.39
62025;BME280;47978;49.118;12.146;2023-02-28T16:14:15;98253.13;;;2.35;58.95
62025;BME280;47978;49.118;12.146;2023-02-28T16:18:16;98250.75;;;2.39;59.62
62025;BME280;47978;49.118;12.146;2023-02-28T16:22:18;98265.34;;;2.33;59.69
62025;BME280;47978;49.118;12.146;2023-02-28T16:26:21;98260.59;;;2.28;59.87
62025;BME280;47978;49.118;12.146;2023-02-28T16:30:24;98265.19;;;2.28;59.60
62025;BME280;47978;49.118;12.146;2023-02-28T16:34:27;98269.69;;;2.22;60.43
62025;BME280;47978;49.118;12.146;2023-02-28T16:38:28;98266.84;;;2.17;60.57
62025;BME280;47978;49.118;12.146;2023-02-28T16:42:30;98266.53;;;1.95;61.03
62025;BME280;47978;49.118;12.146;2023-02-28T16:46:34;98276.97;;;1.98;61.26
62025;BME280;47978;49.118;12.146;2023-02-28T16:50:35;98278.00;;;1.85;61.79
62025;BME280;47978;49.118;12.146;2023-02-28T16:54:37;98277.41;;;1.65;62.60
62025;BME280;47978;49.118;12.146;2023-02-28T16:58:38;98284.00;;;1.75;62.44
62025;BME280;47978;49.118;12.146;2023-02-28T17:02:41;98285.38;;;1.66;62.41
62025;BME280;47978;49.118;12.146;2023-02-28T17:06:43;98291.44;;;1.50;63.25
62025;BME280;47978;49.118;12.146;2023-02-28T17:10:45;98300.06;;;1.47;63.56
62025;BME280;47978;49.118;12.146;2023-02-28T17:14:46;98303.34;;;1.37;64.28
62025;BME280;47978;49.118;12.146;2023-02-28T17:18:49;98308.94;;;1.24;64.59
62025;BME280;47978;49.118;12.146;2023-02-28T17:22:51;98314.75;;;1.27;64.67
62025;BME280;47978;49.118;12.146;2023-02-28T17:26:52;98314.91;;;1.32;64.53
62025;BME280;47978;49.118;12.146;2023-02-28T17:30:53;98316.94;;;1.19;64.85
62025;BME280;47978;49.118;12.146;2023-02-28T17:34:56;98327.06;;;1.11;65.66
62025;BME280;47978;49.118;12.146;2023-02-28T17:38:58;98323.28;;;1.12;65.85
62025;BME280;47978;49.118;12.146;2023-02-28T17:42:59;98319.94;;;1.10;65.96
62025;BME280;47978;49.118;12.146;2023-02-28T17:47:00;98320.47;;;1.01;66.19
62025;BME280;47978;49.118;12.146;2023-02-28T17:51:03;98333.25;;;1.00;66.67
62025;BME280;47978;49.118;12.146;2023-02-28T17:55:05;98332.91;;;0.90;66.78
62025;BME280;47978;49.118;12.146;2023-02-28T17:59:08;98332.25;;;0.95;66.90
62025;BME280;47978;49.118;12.146;2023-02-28T18:03:10;98327.41;;;0.97;66.93
62025;BME280;47978;49.118;12.146;2023-02-28T18:07:13;98326.84;;;0.88;66.92
62025;BME280;47978;49.118;12.146;2023-02-28T18:11:14;98326.47;;;0.84;67.67
62025;BME280;47978;49.118;12.146;2023-02-28T18:15:16;98330.44;;;0.88;67.46
62025;BME280;47978;49.118;12.146;2023-02-28T18:19:17;98330.88;;;0.85;67.47
62025;BME280;47978;49.118;12.146;2023-02-28T18:23:20;98339.91;;;0.79;67.73
62025;BME280;47978;49.118;12.146;2023-02-28T18:27:21;98339.53;;;0.76;67.83
62025;BME280;47978;49.118;12.146;2023-02-28T18:31:23;98331.59;;;0.74;68.14
62025;BME280;47978;49.118;12.146;2023-02-28T18:35:24;98335.38;;;0.73;68.02
62025;BME280;47978;49.118;12.146;2023-02-28T18:39:28;98330.75;;;0.74;68.60
62025;BME280;47978;49.118;12.146;2023-02-28T18:43:31;98322.66;;;0.67;68.62
62025;BME280;47978;49.118;12.146;2023-02-28T18:47:33;98328.09;;;0.67;68.90
62025;BME280;47978;49.118;12.146;2023-02-28T18:51:34;98328.81;;;0.56;69.17
62025;BME280;47978;49.118;12.146;2023-02-28T18:55:37;98323.59;;;0.54;69.46
62025;BME280;47978;49.118;12.146;2023-02-28T18:59:38;98318.47;;;0.39;69.71
62025;BME280;47978;49.118;12.146;2023-02-28T19:03:40;98321.97;;;0.47;69.77
62025;BME280;47978;49.118;12.146;2023-02-28T19:07:41;98328.88;;;0.49;69.91
62025;BME280;47978;49.118;12.146;2023-02-28T19:11:44;98325.09;;;0.50;70.02
62025;BME280;47978;49.118;12.146;2023-02-28T19:15:45;98316.47;;;0.53;69.94
62025;BME280;47978;49.118;12.146;2023-02-28T19:19:47;98323.44;;;0.49;69.86
62025;BME280;47978;49.118;12.146;2023-02-28T19:23:48;98325.91;;;0.51;70.03
62025;BME280;47978;49.118;12.146;2023-02-28T19:27:51;98323.00;;;0.45;70.18
62025;BME280;47978;49.118;12.146;2023-02-28T19:31:53;98328.75;;;0.37;70.38
62025;BME280;47978;49.118;12.146;2023-02-28T19:35:54;98319.25;;;0.47;70.35
62025;BME280;47978;49.118;12.146;2023-02-28T19:39:59;98320.09;;;0.47;69.96
62025;BME280;47978;49.118;12.146;2023-02-28T19:44:01;98317.81;;;0.44;70.20
62025;BME280;47978;49.118;12.146;2023-02-28T19:48:03;98321.44;;;0.31;70.73
62025;BME280;47978;49.118;12.146;2023-02-28T19:52:05;98322.88;;;0.40;70.60
62025;BME280;47978;49.118;12.146;2023-02-28T19:56:06;98323.50;;;0.36;70.78
62025;BME280;47978;49.118;12.146;2023-02-28T20:00:10;98324.53;;;0.41;70.27
62025;BME280;47978;49.118;12.146;2023-02-28T20:04:12;98325.16;;;0.37;70.69
62025;BME280;47978;49.118;12.146;2023-02-28T20:08:13;98327.06;;;0.36;70.66
62025;BME280;47978;49.118;12.146;2023-02-28T20:12:15;98316.44;;;0.28;71.07
62025;BME280;47978;49.118;12.146;2023-02-28T20:16:26;98322.03;;;0.40;70.41
62025;BME280;47978;49.118;12.146;2023-02-28T20:20:27;98314.72;;;0.34;70.96
62025;BME280;47978;49.118;12.146;2023-02-28T20:24:28;98317.44;;;0.34;71.12
62025;BME280;47978;49.118;12.146;2023-02-28T20:28:30;98312.19;;;0.39;70.57
62025;BME280;47978;49.118;12.146;2023-02-28T20:32:33;98311.69;;;0.24;71.32
62025;BME280;47978;49.118;12.146;2023-02-28T20:36:34;98305.00;;;0.19;71.72
62025;BME280;47978;49.118;12.146;2023-02-28T20:40:36;98316.69;;;0.27;71.84
62025;BME280;47978;49.118;12.146;2023-02-28T20:44:38;98310.69;;;0.11;72.02
62025;BME280;47978;49.118;12.146;2023-02-28T20:48:40;98304.41;;;0.17;71.89
62025;BME280;47978;49.118;12.146;2023-02-28T20:52:42;98307.38;;;0.09;72.51
62025;BME280;47978;49.118;12.146;2023-02-28T20:56:44;98308.59;;;0.13;72.27
62025;BME280;47978;49.118;12.146;2023-02-28T21:00:45;98309.47;;;0.07;72.41
62025;BME280;47978;49.118;12.146;2023-02-28T21:04:48;98316.22;;;-0.02;72.70
62025;BME280;47978;49.118;12.146;2023-02-28T21:08:49;98306.13;;;0.05;72.64
62025;BME280;47978;49.118;12.146;2023-02-28T21:12:51;98306.97;;;0.06;72.78
62025;BME280;47978;49.118;12.146;2023-02-28T21:16:52;98309.03;;;0.10;72.83
62025;BME280;47978;49.118;12.146;2023-02-28T21:21:00;98305.09;;;0.06;72.67
62025;BME280;47978;49.118;12.146;2023-02-28T21:25:01;98307.31;;;0.16;72.53
62025;BME280;47978;49.118;12.146;2023-02-28T21:29:03;98306.13;;;0.12;72.44
62025;BME280;47978;49.118;12.146;2023-02-28T21:33:04;98306.13;;;0.12;72.67
62025;BME280;47978;49.118;12.146;2023-02-28T21:37:07;98310.84;;;-0.15;73.72
62025;BME280;47978;49.118;12.146;2023-02-28T21:41:09;98297.59;;;0.02;73.09